sensor_id;sensor_type;location;lat;lon;timestamp;pressure;altitude;pressure_sealevel;temperature;humidity
13033;BME280;6583;42.632;23.298;2022-08-21T00:02:21;92035.34;;;21.32;93.10
13033;BME280;6583;42.632;23.298;2022-08-21T00:04:49;92024.53;;;21.29;93.84
13033;BME280;6583;42.632;23.298;2022-08-21T00:07:17;92022.47;;;21.18;95.47
13033;BME280;6583;42.632;23.298;2022-08-21T00:09:44;92025.13;;;21.15;94.88
13033;BME280;6583;42.632;23.298;2022-08-21T00:12:11;92019.34;;;21.13;96.21
13033;BME280;6583;42.632;23.298;2022-08-21T00:14:40;92016.16;;;21.07;96.57
13033;BME280;6583;42.632;23.298;2022-08-21T00:17:07;92013.81;;;21.06;95.86
13033;BME280;6583;42.632;23.298;2022-08-21T00:19:34;92010.75;;;21.07;95.63
13033;BME280;6583;42.632;23.298;2022-08-21T00:22:00;92010.00;;;21.07;94.89
13033;BME280;6583;42.632;23.298;2022-08-21T00:24:27;92019.25;;;21.09;94.89
13033;BME280;6583;42.632;23.298;2022-08-21T00:26:54;92004.66;;;21.10;94.81
13033;BME280;6583;42.632;23.298;2022-08-21T00:29:21;92010.44;;;21.12;94.12
13033;BME280;6583;42.632;23.298;2022-08-21T00:31:49;92008.53;;;21.13;93.77
13033;BME280;6583;42.632;23.298;2022-08-21T00:34:15;92013.53;;;21.14;93.50
13033;BME280;6583;42.632;23.298;2022-08-21T00:36:42;92010.84;;;21.14;93.17
13033;BME280;6583;42.632;23.298;2022-08-21T00:39:09;92010.81;;;21.11;94.49
13033;BME280;6583;42.632;23.298;2022-08-21T00:41:37;92003.06;;;21.09;94.30
13033;BME280;6583;42.632;23.298;2022-08-21T00:44:04;92004.69;;;21.14;93.46
13033;BME280;6583;42.632;23.298;2022-08-21T00:46:32;92014.31;;;21.11;93.94
13033;BME280;6583;42.632;23.298;2022-08-21T00:49:00;92018.50;;;21.09;94.01
13033;BME280;6583;42.632;23.298;2022-08-21T00:51:33;92015.06;;;21.12;93.31
13033;BME280;6583;42.632;23.298;2022-08-21T00:54:02;92012.41;;;21.15;92.89
13033;BME280;6583;42.632;23.298;2022-08-21T00:56:29;92012.41;;;21.15;92.89
13033;BME280;6583;42.632;23.298;2022-08-21T00:58:57;92005.88;;;21.16;92.99
13033;BME280;6583;42.632;23.298;2022-08-21T01:01:25;92011.31;;;21.20;92.44
13033;BME280;6583;42.632;23.298;2022-08-21T01:03:53;92010.13;;;21.17;92.26
13033;BME280;6583;42.632;23.298;2022-08-21T01:06:21;91998.91;;;21.15;92.65
13033;BME280;6583;42.632;23.298;2022-08-21T01:08:48;91996.94;;;21.12;93.49
13033;BME280;6583;42.632;23.298;2022-08-21T01:11:16;91996.16;;;21.08;93.62
13033;BME280;6583;42.632;23.298;2022-08-21T01:13:43;91986.03;;;21.01;94.19
13033;BME280;6583;42.632;23.298;2022-08-21T01:16:13;91988.34;;;20.99;94.53
13033;BME280;6583;42.632;23.298;2022-08-21T01:18:41;91987.13;;;20.97;94.82
13033;BME280;6583;42.632;23.298;2022-08-21T01:21:12;91989.84;;;20.97;94.55
13033;BME280;6583;42.632;23.298;2022-08-21T01:23:41;91983.25;;;20.94;94.82
13033;BME280;6583;42.632;23.298;2022-08-21T01:26:10;91985.97;;;20.94;94.80
13033;BME280;6583;42.632;23.298;2022-08-21T01:28:40;91979.81;;;20.94;94.09
13033;BME280;6583;42.632;23.298;2022-08-21T01:31:10;91986.72;;;20.95;93.89
13033;BME280;6583;42.632;23.298;2022-08-21T01:33:37;91991.75;;;20.96;93.83
13033;BME280;6583;42.632;23.298;2022-08-21T01:36:04;91995.22;;;20.97;93.63
13033;BME280;6583;42.632;23.298;2022-08-21T01:38:32;91994.50;;;21.00;93.16
13033;BME280;6583;42.632;23.298;2022-08-21T01:40:59;91996.06;;;21.01;93.00
13033;BME280;6583;42.632;23.298;2022-08-21T01:43:26;91990.66;;;21.01;93.62
13033;BME280;6583;42.632;23.298;2022-08-21T01:45:53;91988.66;;;20.94;94.21
13033;BME280;6583;42.632;23.298;2022-08-21T01:48:19;91985.19;;;20.94;93.77
13033;BME280;6583;42.632;23.298;2022-08-21T01:50:46;91985.13;;;20.90;94.15
13033;BME280;6583;42.632;23.298;2022-08-21T01:53:13;91987.47;;;20.92;94.04
13033;BME280;6583;42.632;23.298;2022-08-21T01:55:42;91984.75;;;20.92;93.84
13033;BME280;6583;42.632;23.298;2022-08-21T01:58:09;91985.91;;;20.91;93.25
13033;BME280;6583;42.632;23.298;2022-08-21T02:00:36;91986.31;;;20.93;92.92
13033;BME280;6583;42.632;23.298;2022-08-21T02:03:02;91995.13;;;20.90;93.29
13033;BME280;6583;42.632;23.298;2022-08-21T02:05:29;91990.91;;;20.89;93.85
13033;BME280;6583;42.632;23.298;2022-08-21T02:07:56;91987.38;;;20.84;93.61
13033;BME280;6583;42.632;23.298;2022-08-21T02:10:25;91997.34;;;20.80;94.02
13033;BME280;6583;42.632;23.298;2022-08-21T02:12:54;92002.69;;;20.77;94.71
13033;BME280;6583;42.632;23.298;2022-08-21T02:15:21;92000.00;;;20.77;94.29
13033;BME280;6583;42.632;23.298;2022-08-21T02:17:50;91999.63;;;20.78;93.82
13033;BME280;6583;42.632;23.298;2022-08-21T02:20:20;91992.69;;;20.77;93.82
13033;BME280;6583;42.632;23.298;2022-08-21T02:22:47;91996.91;;;20.75;93.99
13033;BME280;6583;42.632;23.298;2022-08-21T02:25:15;92001.50;;;20.74;94.21
13033;BME280;6583;42.632;23.298;2022-08-21T02:27:44;91998.78;;;20.74;93.95
13033;BME280;6583;42.632;23.298;2022-08-21T02:30:18;92007.25;;;20.73;93.78
13033;BME280;6583;42.632;23.298;2022-08-21T02:32:45;92008.03;;;20.73;93.64
13033;BME280;6583;42.632;23.298;2022-08-21T02:35:13;92004.19;;;20.74;92.94
13033;BME280;6583;42.632;23.298;2022-08-21T02:37:45;92018.03;;;20.73;92.93
13033;BME280;6583;42.632;23.298;2022-08-21T02:40:12;92019.53;;;20.70;93.14
13033;BME280;6583;42.632;23.298;2022-08-21T02:42:39;92011.09;;;20.72;92.69
13033;BME280;6583;42.632;23.298;2022-08-21T02:45:06;92009.13;;;20.69;92.83
13033;BME280;6583;42.632;23.298;2022-08-21T02:47:35;92008.00;;;20.70;92.94
13033;BME280;6583;42.632;23.298;2022-08-21T02:50:07;92009.13;;;20.69;92.50
13033;BME280;6583;42.632;23.298;2022-08-21T02:52:33;92008.34;;;20.68;92.68
13033;BME280;6583;42.632;23.298;2022-08-21T02:55:02;92007.56;;;20.67;92.33
13033;BME280;6583;42.632;23.298;2022-08-21T02:57:29;92007.94;;;20.66;93.07
13033;BME280;6583;42.632;23.298;2022-08-21T02:59:57;92014.47;;;20.65;92.82
13033;BME280;6583;42.632;23.298;2022-08-21T03:02:24;92011.78;;;20.65;92.02
13033;BME280;6583;42.632;23.298;2022-08-21T03:04:52;92012.53;;;20.65;92.24
13033;BME280;6583;42.632;23.298;2022-08-21T03:07:19;92013.63;;;20.61;92.80
13033;BME280;6583;42.632;23.298;2022-08-21T03:09:46;92005.47;;;20.57;92.99
13033;BME280;6583;42.632;23.298;2022-08-21T03:12:12;92016.63;;;20.56;93.40
13033;BME280;6583;42.632;23.298;2022-08-21T03:14:39;92009.69;;;20.55;92.87
13033;BME280;6583;42.632;23.298;2022-08-21T03:17:06;92009.28;;;20.53;93.52
13033;BME280;6583;42.632;23.298;2022-08-21T03:19:32;92009.63;;;20.51;94.04
13033;BME280;6583;42.632;23.298;2022-08-21T03:22:00;92014.56;;;20.45;94.17
13033;BME280;6583;42.632;23.298;2022-08-21T03:24:27;91999.53;;;20.44;93.57
13033;BME280;6583;42.632;23.298;2022-08-21T03:26:54;92006.78;;;20.40;93.64
13033;BME280;6583;42.632;23.298;2022-08-21T03:29:21;92002.94;;;20.41;94.23
13033;BME280;6583;42.632;23.298;2022-08-21T03:31:48;91994.50;;;20.43;93.77
13033;BME280;6583;42.632;23.298;2022-08-21T03:34:14;91997.59;;;20.45;93.42
13033;BME280;6583;42.632;23.298;2022-08-21T03:36:41;91991.44;;;20.44;93.89
13033;BME280;6583;42.632;23.298;2022-08-21T03:39:10;91996.88;;;20.48;92.93
13033;BME280;6583;42.632;23.298;2022-08-21T03:41:36;91999.16;;;20.46;93.01
13033;BME280;6583;42.632;23.298;2022-08-21T03:44:03;92006.94;;;20.51;92.54
13033;BME280;6583;42.632;23.298;2022-08-21T03:46:30;92003.03;;;20.48;92.54
13033;BME280;6583;42.632;23.298;2022-08-21T03:48:57;91995.25;;;20.43;93.40
13033;BME280;6583;42.632;23.298;2022-08-21T03:51:23;92006.03;;;20.43;94.74
13033;BME280;6583;42.632;23.298;2022-08-21T03:53:50;91999.41;;;20.37;95.49
13033;BME280;6583;42.632;23.298;2022-08-21T03:56:18;92005.47;;;20.31;95.74
13033;BME280;6583;42.632;23.298;2022-08-21T03:58:45;92014.28;;;20.27;95.20
13033;BME280;6583;42.632;23.298;2022-08-21T04:01:12;92018.53;;;20.28;94.95
13033;BME280;6583;42.632;23.298;2022-08-21T04:03:38;92010.44;;;20.28;94.68
13033;BME280;6583;42.632;23.298;2022-08-21T04:06:06;92017.31;;;20.26;94.95
13033;BME280;6583;42.632;23.298;2022-08-21T04:08:33;92025.34;;;20.22;95.44
13033;BME280;6583;42.632;23.298;2022-08-21T04:11:00;92024.19;;;20.20;95.65
13033;BME280;6583;42.632;23.298;2022-08-21T04:13:28;92020.75;;;20.23;95.24
13033;BME280;6583;42.632;23.298;2022-08-21T04:15:56;92018.47;;;20.25;94.87
13033;BME280;6583;42.632;23.298;2022-08-21T04:18:24;92016.56;;;20.25;94.33
13033;BME280;6583;42.632;23.298;2022-08-21T04:20:52;92022.72;;;20.26;94.25
13033;BME280;6583;42.632;23.298;2022-08-21T04:23:21;92012.78;;;20.30;93.62
13033;BME280;6583;42.632;23.298;2022-08-21T04:25:47;92010.88;;;20.31;94.22
13033;BME280;6583;42.632;23.298;2022-08-21T04:28:14;92010.91;;;20.34;93.17
13033;BME280;6583;42.632;23.298;2022-08-21T04:30:42;92013.19;;;20.32;94.08
13033;BME280;6583;42.632;23.298;2022-08-21T04:33:09;92008.94;;;20.31;94.77
13033;BME280;6583;42.632;23.298;2022-08-21T04:35:36;92003.56;;;20.31;95.17
13033;BME280;6583;42.632;23.298;2022-08-21T04:38:02;92008.94;;;20.31;96.01
13033;BME280;6583;42.632;23.298;2022-08-21T04:40:29;92008.00;;;20.20;96.46
13033;BME280;6583;42.632;23.298;2022-08-21T04:43:00;91995.25;;;20.17;95.53
13033;BME280;6583;42.632;23.298;2022-08-21T04:45:29;92004.91;;;20.18;95.49
13033;BME280;6583;42.632;23.298;2022-08-21T04:47:59;92002.63;;;20.20;95.01
13033;BME280;6583;42.632;23.298;2022-08-21T04:50:30;92006.09;;;20.20;94.86
13033;BME280;6583;42.632;23.298;2022-08-21T04:52:58;92006.16;;;20.24;95.22
13033;BME280;6583;42.632;23.298;2022-08-21T04:55:26;92010.00;;;20.23;95.52
13033;BME280;6583;42.632;23.298;2022-08-21T04:57:53;92003.44;;;20.24;97.04
13033;BME280;6583;42.632;23.298;2022-08-21T05:00:22;92003.81;;;20.22;96.99
13033;BME280;6583;42.632;23.298;2022-08-21T05:02:49;92010.00;;;20.23;97.58
13033;BME280;6583;42.632;23.298;2022-08-21T05:05:21;92012.75;;;20.26;96.10
13033;BME280;6583;42.632;23.298;2022-08-21T05:07:48;92010.50;;;20.32;95.82
13033;BME280;6583;42.632;23.298;2022-08-21T05:10:15;92012.88;;;20.37;97.51
13033;BME280;6583;42.632;23.298;2022-08-21T05:12:42;92014.50;;;20.42;98.61
13033;BME280;6583;42.632;23.298;2022-08-21T05:15:11;92010.59;;;20.39;98.06
13033;BME280;6583;42.632;23.298;2022-08-21T05:17:38;92004.84;;;20.41;96.47
13033;BME280;6583;42.632;23.298;2022-08-21T05:20:05;92005.28;;;20.43;98.10
13033;BME280;6583;42.632;23.298;2022-08-21T05:22:33;92016.91;;;20.47;97.08
13033;BME280;6583;42.632;23.298;2022-08-21T05:25:00;92018.44;;;20.48;98.74
13033;BME280;6583;42.632;23.298;2022-08-21T05:27:27;92018.38;;;20.44;98.25
13033;BME280;6583;42.632;23.298;2022-08-21T05:29:55;92012.22;;;20.44;98.97
13033;BME280;6583;42.632;23.298;2022-08-21T05:32:22;92005.38;;;20.50;97.16
13033;BME280;6583;42.632;23.298;2022-08-21T05:34:49;92008.50;;;20.52;99.86
13033;BME280;6583;42.632;23.298;2022-08-21T05:37:16;92006.47;;;20.45;100.00
13033;BME280;6583;42.632;23.298;2022-08-21T05:39:44;92005.69;;;20.45;100.00
13033;BME280;6583;42.632;23.298;2022-08-21T05:42:11;92006.03;;;20.43;100.00
13033;BME280;6583;42.632;23.298;2022-08-21T05:44:38;92004.59;;;20.50;98.96
13033;BME280;6583;42.632;23.298;2022-08-21T05:47:05;92002.31;;;20.52;100.00
13033;BME280;6583;42.632;23.298;2022-08-21T05:49:32;92001.09;;;20.45;100.00
13033;BME280;6583;42.632;23.298;2022-08-21T05:51:59;91996.09;;;20.47;100.00
13033;BME280;6583;42.632;23.298;2022-08-21T05:54:27;92001.50;;;20.47;100.00
13033;BME280;6583;42.632;23.298;2022-08-21T05:56:55;92003.09;;;20.52;100.00
13033;BME280;6583;42.632;23.298;2022-08-21T05:59:22;91998.91;;;20.55;100.00
13033;BME280;6583;42.632;23.298;2022-08-21T06:01:49;92003.88;;;20.53;100.00
13033;BME280;6583;42.632;23.298;2022-08-21T06:04:18;92009.31;;;20.56;100.00
13033;BME280;6583;42.632;23.298;2022-08-21T06:06:44;92006.31;;;20.61;100.00
13033;BME280;6583;42.632;23.298;2022-08-21T06:09:12;92006.25;;;20.58;100.00
13033;BME280;6583;42.632;23.298;2022-08-21T06:11:38;92004.66;;;20.53;100.00
13033;BME280;6583;42.632;23.298;2022-08-21T06:14:06;92004.69;;;20.57;100.00
13033;BME280;6583;42.632;23.298;2022-08-21T06:16:33;92005.25;;;20.66;100.00
13033;BME280;6583;42.632;23.298;2022-08-21T06:19:00;91998.47;;;20.79;100.00
13033;BME280;6583;42.632;23.298;2022-08-21T06:21:26;91984.75;;;20.92;100.00
13033;BME280;6583;42.632;23.298;2022-08-21T06:23:53;91996.09;;;21.04;100.00
13033;BME280;6583;42.632;23.298;2022-08-21T06:26:20;91989.84;;;20.97;99.19
13033;BME280;6583;42.632;23.298;2022-08-21T06:28:47;91998.03;;;21.04;100.00
13033;BME280;6583;42.632;23.298;2022-08-21T06:31:17;91994.56;;;21.07;100.00
13033;BME280;6583;42.632;23.298;2022-08-21T06:33:45;92003.91;;;21.13;100.00
13033;BME280;6583;42.632;23.298;2022-08-21T06:36:12;92004.06;;;21.28;100.00
13033;BME280;6583;42.632;23.298;2022-08-21T06:38:39;92011.09;;;21.36;100.00
13033;BME280;6583;42.632;23.298;2022-08-21T06:41:07;92011.66;;;21.49;98.41
13033;BME280;6583;42.632;23.298;2022-08-21T06:43:34;92014.47;;;21.59;99.16
13033;BME280;6583;42.632;23.298;2022-08-21T06:46:00;92014.16;;;21.65;97.48
13033;BME280;6583;42.632;23.298;2022-08-21T06:48:28;92012.59;;;21.64;95.33
13033;BME280;6583;42.632;23.298;2022-08-21T06:50:58;92009.13;;;21.63;96.18
13033;BME280;6583;42.632;23.298;2022-08-21T06:53:25;92013.75;;;21.66;95.17
13033;BME280;6583;42.632;23.298;2022-08-21T06:55:52;92017.97;;;21.64;94.75
13033;BME280;6583;42.632;23.298;2022-08-21T06:58:18;92023.69;;;21.55;93.23
13033;BME280;6583;42.632;23.298;2022-08-21T07:00:48;92022.81;;;21.47;94.16
13033;BME280;6583;42.632;23.298;2022-08-21T07:03:21;92029.72;;;21.45;95.15
13033;BME280;6583;42.632;23.298;2022-08-21T07:05:50;92022.34;;;21.41;95.30
13033;BME280;6583;42.632;23.298;2022-08-21T07:08:17;92028.88;;;21.37;94.21
13033;BME280;6583;42.632;23.298;2022-08-21T07:10:44;92027.16;;;21.21;94.62
13033;BME280;6583;42.632;23.298;2022-08-21T07:13:11;92026.31;;;21.17;93.71
13033;BME280;6583;42.632;23.298;2022-08-21T07:15:38;92028.59;;;21.15;95.75
13033;BME280;6583;42.632;23.298;2022-08-21T07:18:04;92032.38;;;21.11;94.88
13033;BME280;6583;42.632;23.298;2022-08-21T07:20:32;92028.88;;;21.07;97.17
13033;BME280;6583;42.632;23.298;2022-08-21T07:23:03;92020.88;;;21.14;98.68
13033;BME280;6583;42.632;23.298;2022-08-21T07:25:31;92024.00;;;21.19;95.59
13033;BME280;6583;42.632;23.298;2022-08-21T07:27:58;92016.34;;;21.21;94.94
13033;BME280;6583;42.632;23.298;2022-08-21T07:30:25;92014.06;;;21.23;95.56
13033;BME280;6583;42.632;23.298;2022-08-21T07:32:52;92016.44;;;21.29;96.13
13033;BME280;6583;42.632;23.298;2022-08-21T07:35:19;92008.84;;;21.41;97.48
13033;BME280;6583;42.632;23.298;2022-08-21T07:37:46;92008.06;;;21.41;94.00
13033;BME280;6583;42.632;23.298;2022-08-21T07:40:15;92006.13;;;21.38;93.72
13033;BME280;6583;42.632;23.298;2022-08-21T07:42:43;92002.66;;;21.37;98.34
13033;BME280;6583;42.632;23.298;2022-08-21T07:45:11;92001.81;;;21.33;98.52
13033;BME280;6583;42.632;23.298;2022-08-21T07:47:38;92004.09;;;21.31;99.56
13033;BME280;6583;42.632;23.298;2022-08-21T07:50:06;91998.72;;;21.31;99.79
13033;BME280;6583;42.632;23.298;2022-08-21T07:52:33;91990.22;;;21.29;99.35
13033;BME280;6583;42.632;23.298;2022-08-21T07:55:00;91999.59;;;21.39;98.83
13033;BME280;6583;42.632;23.298;2022-08-21T07:57:28;92001.94;;;21.44;98.03
13033;BME280;6583;42.632;23.298;2022-08-21T07:59:55;92003.09;;;21.43;98.59
13033;BME280;6583;42.632;23.298;2022-08-21T08:02:23;92005.00;;;21.42;97.69
13033;BME280;6583;42.632;23.298;2022-08-21T08:04:50;92000.44;;;21.47;97.53
13033;BME280;6583;42.632;23.298;2022-08-21T08:07:16;92021.81;;;21.63;91.71
13033;BME280;6583;42.632;23.298;2022-08-21T08:09:43;92026.13;;;21.67;91.73
13033;BME280;6583;42.632;23.298;2022-08-21T08:12:11;92018.94;;;21.82;92.38
13033;BME280;6583;42.632;23.298;2022-08-21T08:14:39;92015.56;;;21.92;90.20
13033;BME280;6583;42.632;23.298;2022-08-21T08:17:06;92013.25;;;21.94;91.80
13033;BME280;6583;42.632;23.298;2022-08-21T08:19:32;92014.00;;;21.91;88.30
13033;BME280;6583;42.632;23.298;2022-08-21T08:21:59;92024.06;;;21.94;89.37
13033;BME280;6583;42.632;23.298;2022-08-21T08:24:26;92013.31;;;22.02;87.07
13033;BME280;6583;42.632;23.298;2022-08-21T08:26:53;92013.38;;;22.09;92.34
13033;BME280;6583;42.632;23.298;2022-08-21T08:29:22;92016.75;;;21.98;91.46
13033;BME280;6583;42.632;23.298;2022-08-21T08:31:50;92019.06;;;21.96;93.66
13033;BME280;6583;42.632;23.298;2022-08-21T08:34:17;92014.88;;;22.03;92.11
13033;BME280;6583;42.632;23.298;2022-08-21T08:36:44;92018.38;;;22.07;87.92
13033;BME280;6583;42.632;23.298;2022-08-21T08:39:11;92026.53;;;22.14;88.06
13033;BME280;6583;42.632;23.298;2022-08-21T08:41:39;92023.53;;;22.23;89.54
13033;BME280;6583;42.632;23.298;2022-08-21T08:44:07;92021.78;;;22.41;91.41
13033;BME280;6583;42.632;23.298;2022-08-21T08:46:38;92016.53;;;22.70;90.43
13033;BME280;6583;42.632;23.298;2022-08-21T08:49:13;92026.75;;;22.98;84.26
13033;BME280;6583;42.632;23.298;2022-08-21T08:51:45;92029.56;;;23.16;85.36
13033;BME280;6583;42.632;23.298;2022-08-21T08:54:15;92019.22;;;23.29;82.34
13033;BME280;6583;42.632;23.298;2022-08-21T08:56:44;92015.34;;;23.37;81.06
13033;BME280;6583;42.632;23.298;2022-08-21T08:59:15;92019.25;;;23.47;80.36
13033;BME280;6583;42.632;23.298;2022-08-21T09:01:44;92020.03;;;23.44;78.76
13033;BME280;6583;42.632;23.298;2022-08-21T09:04:16;92020.38;;;23.39;81.27
13033;BME280;6583;42.632;23.298;2022-08-21T09:07:01;92011.03;;;23.25;79.51
13033;BME280;6583;42.632;23.298;2022-08-21T09:09:43;92003.28;;;23.17;83.17
13033;BME280;6583;42.632;23.298;2022-08-21T09:12:17;92007.94;;;23.16;80.35
13033;BME280;6583;42.632;23.298;2022-08-21T09:14:53;92000.56;;;23.17;79.37
13033;BME280;6583;42.632;23.298;2022-08-21T09:17:36;91989.38;;;23.18;84.49
13033;BME280;6583;42.632;23.298;2022-08-21T09:20:17;92006.44;;;23.30;81.52
13033;BME280;6583;42.632;23.298;2022-08-21T09:22:52;91998.72;;;23.35;80.56
13033;BME280;6583;42.632;23.298;2022-08-21T09:25:24;91991.00;;;23.44;81.05
13033;BME280;6583;42.632;23.298;2022-08-21T09:27:51;91993.34;;;23.53;80.50
13033;BME280;6583;42.632;23.298;2022-08-21T09:30:24;91999.16;;;23.52;77.64
13033;BME280;6583;42.632;23.298;2022-08-21T09:32:51;91991.81;;;23.52;80.83
13033;BME280;6583;42.632;23.298;2022-08-21T09:35:21;91995.31;;;23.60;78.34
13033;BME280;6583;42.632;23.298;2022-08-21T09:37:54;91988.75;;;23.61;77.02
13033;BME280;6583;42.632;23.298;2022-08-21T09:40:32;91985.22;;;23.53;77.81
13033;BME280;6583;42.632;23.298;2022-08-21T09:43:02;91987.16;;;23.53;80.56
13033;BME280;6583;42.632;23.298;2022-08-21T09:45:30;91986.78;;;23.51;79.99
13033;BME280;6583;42.632;23.298;2022-08-21T09:48:08;91994.91;;;23.51;77.04
13033;BME280;6583;42.632;23.298;2022-08-21T09:50:36;91991.78;;;23.45;78.70
13033;BME280;6583;42.632;23.298;2022-08-21T09:53:04;91990.22;;;23.44;79.97
13033;BME280;6583;42.632;23.298;2022-08-21T09:55:34;91983.25;;;23.39;77.07
13033;BME280;6583;42.632;23.298;2022-08-21T09:58:30;91982.47;;;23.35;78.82
13033;BME280;6583;42.632;23.298;2022-08-21T10:00:58;91982.47;;;23.35;80.52
13033;BME280;6583;42.632;23.298;2022-08-21T10:03:26;91977.81;;;23.32;81.21
13033;BME280;6583;42.632;23.298;2022-08-21T10:05:57;91980.16;;;23.37;82.44
13033;BME280;6583;42.632;23.298;2022-08-21T10:08:26;91978.19;;;23.23;80.18
13033;BME280;6583;42.632;23.298;2022-08-21T10:10:55;91984.75;;;23.22;78.67
13033;BME280;6583;42.632;23.298;2022-08-21T10:13:29;91974.72;;;23.30;79.50
13033;BME280;6583;42.632;23.298;2022-08-21T10:16:09;91979.38;;;23.33;78.18
13033;BME280;6583;42.632;23.298;2022-08-21T10:18:40;91967.78;;;23.36;79.56
13033;BME280;6583;42.632;23.298;2022-08-21T10:21:15;91956.16;;;23.28;83.09
13033;BME280;6583;42.632;23.298;2022-08-21T10:23:54;91960.81;;;23.28;85.37
13033;BME280;6583;42.632;23.298;2022-08-21T10:26:32;91953.88;;;23.41;82.87
13033;BME280;6583;42.632;23.298;2022-08-21T10:29:08;91959.31;;;23.41;79.34
13033;BME280;6583;42.632;23.298;2022-08-21T10:31:46;91959.69;;;23.47;80.66
13033;BME280;6583;42.632;23.298;2022-08-21T10:34:26;91948.47;;;23.52;82.94
13033;BME280;6583;42.632;23.298;2022-08-21T10:37:04;91944.22;;;23.55;78.59
13033;BME280;6583;42.632;23.298;2022-08-21T10:39:35;91943.84;;;23.60;79.58
13033;BME280;6583;42.632;23.298;2022-08-21T10:42:20;91946.94;;;23.55;76.36
13033;BME280;6583;42.632;23.298;2022-08-21T10:45:01;91946.16;;;23.58;82.84
13033;BME280;6583;42.632;23.298;2022-08-21T10:47:35;91943.09;;;23.63;80.11
13033;BME280;6583;42.632;23.298;2022-08-21T10:50:10;91932.63;;;23.65;80.96
13033;BME280;6583;42.632;23.298;2022-08-21T10:52:51;91938.47;;;23.71;76.85
13033;BME280;6583;42.632;23.298;2022-08-21T10:55:21;91938.47;;;23.78;77.16
13033;BME280;6583;42.632;23.298;2022-08-21T10:57:51;91933.81;;;23.71;76.83
13033;BME280;6583;42.632;23.298;2022-08-21T11:00:22;91937.66;;;23.66;77.13
13033;BME280;6583;42.632;23.298;2022-08-21T11:02:53;91924.13;;;23.70;78.32
13033;BME280;6583;42.632;23.298;2022-08-21T11:05:27;91927.63;;;23.67;77.40
13033;BME280;6583;42.632;23.298;2022-08-21T11:08:02;91926.44;;;23.64;75.66
13033;BME280;6583;42.632;23.298;2022-08-21T11:10:44;91916.78;;;23.67;76.09
13033;BME280;6583;42.632;23.298;2022-08-21T11:13:20;91915.63;;;23.72;75.43
13033;BME280;6583;42.632;23.298;2022-08-21T11:15:55;91909.81;;;23.77;74.84
13033;BME280;6583;42.632;23.298;2022-08-21T11:18:26;91912.16;;;23.71;74.41
13033;BME280;6583;42.632;23.298;2022-08-21T11:21:01;91914.84;;;23.64;75.15
13033;BME280;6583;42.632;23.298;2022-08-21T11:23:37;91910.97;;;23.69;76.92
13033;BME280;6583;42.632;23.298;2022-08-21T11:26:08;91912.16;;;23.71;75.89
13033;BME280;6583;42.632;23.298;2022-08-21T11:28:41;91908.66;;;23.74;73.88
13033;BME280;6583;42.632;23.298;2022-08-21T11:31:16;91916.78;;;23.74;72.09
13033;BME280;6583;42.632;23.298;2022-08-21T11:34:00;91916.00;;;23.77;72.17
13033;BME280;6583;42.632;23.298;2022-08-21T11:36:34;91909.44;;;23.71;72.20
13033;BME280;6583;42.632;23.298;2022-08-21T11:39:15;91911.38;;;23.78;71.06
13033;BME280;6583;42.632;23.298;2022-08-21T11:41:48;91917.56;;;23.78;72.42
13033;BME280;6583;42.632;23.298;2022-08-21T11:44:32;91910.63;;;23.84;73.41
13033;BME280;6583;42.632;23.298;2022-08-21T11:47:06;91916.81;;;23.85;73.80
13033;BME280;6583;42.632;23.298;2022-08-21T11:49:53;91917.56;;;23.78;70.22
13033;BME280;6583;42.632;23.298;2022-08-21T11:52:28;91909.81;;;23.73;70.55
13033;BME280;6583;42.632;23.298;2022-08-21T11:55:02;91907.88;;;23.70;73.14
13033;BME280;6583;42.632;23.298;2022-08-21T11:57:35;91905.16;;;23.70;73.83
13033;BME280;6583;42.632;23.298;2022-08-21T12:00:22;91905.16;;;23.74;74.28
13033;BME280;6583;42.632;23.298;2022-08-21T12:02:53;91895.88;;;23.60;75.20
13033;BME280;6583;42.632;23.298;2022-08-21T12:05:29;91895.09;;;23.60;75.64
13033;BME280;6583;42.632;23.298;2022-08-21T12:08:04;91888.16;;;23.66;74.03
13033;BME280;6583;42.632;23.298;2022-08-21T12:10:35;91887.00;;;23.74;73.14
13033;BME280;6583;42.632;23.298;2022-08-21T12:13:11;91877.69;;;23.64;73.18
13033;BME280;6583;42.632;23.298;2022-08-21T12:15:47;91891.25;;;23.61;73.91
13033;BME280;6583;42.632;23.298;2022-08-21T12:18:23;91890.09;;;23.62;74.14
13033;BME280;6583;42.632;23.298;2022-08-21T12:21:02;91893.94;;;23.61;73.70
13033;BME280;6583;42.632;23.298;2022-08-21T12:23:31;91898.22;;;23.62;73.64
13033;BME280;6583;42.632;23.298;2022-08-21T12:26:09;91897.41;;;23.69;75.92
13033;BME280;6583;42.632;23.298;2022-08-21T12:28:38;91898.22;;;23.65;73.06
13033;BME280;6583;42.632;23.298;2022-08-21T12:31:17;91892.38;;;23.63;77.05
13033;BME280;6583;42.632;23.298;2022-08-21T12:33:51;91903.22;;;23.60;77.21
13033;BME280;6583;42.632;23.298;2022-08-21T12:36:23;91897.41;;;23.61;77.38
13033;BME280;6583;42.632;23.298;2022-08-21T12:38:54;91890.84;;;23.66;77.14
13033;BME280;6583;42.632;23.298;2022-08-21T12:41:26;91888.91;;;23.66;76.02
13033;BME280;6583;42.632;23.298;2022-08-21T12:43:57;91888.16;;;23.66;77.57
13033;BME280;6583;42.632;23.298;2022-08-21T12:46:31;91884.28;;;23.71;79.00
13033;BME280;6583;42.632;23.298;2022-08-21T12:49:07;91880.78;;;23.70;77.19
13033;BME280;6583;42.632;23.298;2022-08-21T12:51:46;91889.28;;;23.72;77.36
13033;BME280;6583;42.632;23.298;2022-08-21T12:54:23;91883.50;;;23.77;77.75
13033;BME280;6583;42.632;23.298;2022-08-21T12:57:01;91878.06;;;23.74;78.17
13033;BME280;6583;42.632;23.298;2022-08-21T12:59:29;91878.06;;;23.77;79.42
13033;BME280;6583;42.632;23.298;2022-08-21T13:01:56;91871.88;;;23.80;81.33
13033;BME280;6583;42.632;23.298;2022-08-21T13:04:34;91866.13;;;23.82;81.58
13033;BME280;6583;42.632;23.298;2022-08-21T13:07:05;91860.31;;;23.83;79.97
13033;BME280;6583;42.632;23.298;2022-08-21T13:09:37;91877.34;;;23.84;79.92
13033;BME280;6583;42.632;23.298;2022-08-21T13:12:08;91887.78;;;23.86;79.87
13033;BME280;6583;42.632;23.298;2022-08-21T13:14:37;91880.84;;;23.84;75.72